Terminal Aerodrome Forecast
Issued by NWS Shreveport, LA

Home | Current Version | Previous Version | Text Only | Print | Product List | Glossary On
Versions: 1 2 3 4 5 6 7 8 9 10 11 12 13 14 15 16 17 18 19 20 21 22 23 24 25
000
FTUS44 KSHV 041700
TAFELD
TAF
KELD 041739Z 0418/0518 21007KT 3SM -RA BR VCTS BKN009CB
      TEMPO 0418/0420 3SM -TSRA BR BKN006CB
     FM042000 02015G25KT P6SM -RA OVC010
     FM050700 01015KT 5SM -FZRA BR OVC009
     FM051300 02015G22KT 5SM -SN BR OVC005=

USA.gov is the U.S. government's official web portal to all federal, state and local government web resources and services.